sensor_id;sensor_type;location;lat;lon;timestamp;P1;durP1;ratioP1;P2;durP2;ratioP2
38783;SDS011;24531;45.502;12.238;2023-10-09T00:00:11;85.03;;;45.55;;
38783;SDS011;24531;45.502;12.238;2023-10-09T00:02:57;77.05;;;44.38;;
38783;SDS011;24531;45.502;12.238;2023-10-09T00:05:25;82.57;;;46.03;;
38783;SDS011;24531;45.502;12.238;2023-10-09T00:08:04;86.10;;;44.95;;
38783;SDS011;24531;45.502;12.238;2023-10-09T00:10:30;83.40;;;47.13;;
38783;SDS011;24531;45.502;12.238;2023-10-09T00:13:13;80.38;;;44.70;;
38783;SDS011;24531;45.502;12.238;2023-10-09T00:15:38;84.93;;;46.50;;
38783;SDS011;24531;45.502;12.238;2023-10-09T00:18:06;87.35;;;47.17;;
38783;SDS011;24531;45.502;12.238;2023-10-09T00:20:37;76.25;;;45.05;;
38783;SDS011;24531;45.502;12.238;2023-10-09T00:23:08;76.38;;;45.22;;
38783;SDS011;24531;45.502;12.238;2023-10-09T00:28:30;71.35;;;40.47;;
38783;SDS011;24531;45.502;12.238;2023-10-09T00:30:55;75.05;;;44.45;;
38783;SDS011;24531;45.502;12.238;2023-10-09T00:33:21;79.18;;;44.97;;
38783;SDS011;24531;45.502;12.238;2023-10-09T00:35:47;75.65;;;43.00;;
38783;SDS011;24531;45.502;12.238;2023-10-09T00:38:19;76.07;;;43.95;;
38783;SDS011;24531;45.502;12.238;2023-10-09T00:40:45;77.28;;;44.55;;
38783;SDS011;24531;45.502;12.238;2023-10-09T00:43:12;81.53;;;46.50;;
38783;SDS011;24531;45.502;12.238;2023-10-09T00:45:39;83.30;;;48.10;;
38783;SDS011;24531;45.502;12.238;2023-10-09T00:48:06;77.35;;;44.50;;
38783;SDS011;24531;45.502;12.238;2023-10-09T00:50:33;84.53;;;45.75;;
38783;SDS011;24531;45.502;12.238;2023-10-09T00:53:04;78.75;;;46.25;;
38783;SDS011;24531;45.502;12.238;2023-10-09T00:55:37;75.82;;;43.08;;
38783;SDS011;24531;45.502;12.238;2023-10-09T00:58:14;79.20;;;44.45;;
38783;SDS011;24531;45.502;12.238;2023-10-09T01:00:45;77.20;;;44.63;;
38783;SDS011;24531;45.502;12.238;2023-10-09T01:03:14;75.03;;;43.53;;
38783;SDS011;24531;45.502;12.238;2023-10-09T01:05:51;73.80;;;43.28;;
38783;SDS011;24531;45.502;12.238;2023-10-09T01:08:22;73.80;;;41.30;;
38783;SDS011;24531;45.502;12.238;2023-10-09T01:13:43;77.30;;;44.63;;
38783;SDS011;24531;45.502;12.238;2023-10-09T01:16:13;80.25;;;44.78;;
38783;SDS011;24531;45.502;12.238;2023-10-09T01:18:42;78.32;;;45.45;;
38783;SDS011;24531;45.502;12.238;2023-10-09T01:21:08;80.40;;;44.75;;
38783;SDS011;24531;45.502;12.238;2023-10-09T01:23:41;77.68;;;43.55;;
38783;SDS011;24531;45.502;12.238;2023-10-09T01:26:26;74.43;;;44.42;;
38783;SDS011;24531;45.502;12.238;2023-10-09T01:28:51;74.78;;;44.08;;
38783;SDS011;24531;45.502;12.238;2023-10-09T01:31:23;76.82;;;43.95;;
38783;SDS011;24531;45.502;12.238;2023-10-09T01:33:51;78.10;;;43.92;;
38783;SDS011;24531;45.502;12.238;2023-10-09T01:36:18;79.32;;;43.03;;
38783;SDS011;24531;45.502;12.238;2023-10-09T01:38:56;78.30;;;44.42;;
38783;SDS011;24531;45.502;12.238;2023-10-09T01:41:32;73.90;;;43.47;;
38783;SDS011;24531;45.502;12.238;2023-10-09T01:43:59;73.28;;;42.35;;
38783;SDS011;24531;45.502;12.238;2023-10-09T01:46:32;73.40;;;42.03;;
38783;SDS011;24531;45.502;12.238;2023-10-09T01:48:58;76.78;;;44.17;;
38783;SDS011;24531;45.502;12.238;2023-10-09T01:51:33;74.30;;;42.63;;
38783;SDS011;24531;45.502;12.238;2023-10-09T01:54:01;76.72;;;44.10;;
38783;SDS011;24531;45.502;12.238;2023-10-09T01:56:27;79.18;;;43.90;;
38783;SDS011;24531;45.502;12.238;2023-10-09T01:58:53;75.05;;;42.28;;
38783;SDS011;24531;45.502;12.238;2023-10-09T02:01:22;75.00;;;42.20;;
38783;SDS011;24531;45.502;12.238;2023-10-09T02:03:48;77.95;;;44.20;;
38783;SDS011;24531;45.502;12.238;2023-10-09T02:06:16;75.50;;;43.85;;
38783;SDS011;24531;45.502;12.238;2023-10-09T02:08:51;73.35;;;42.20;;
38783;SDS011;24531;45.502;12.238;2023-10-09T02:11:21;72.38;;;41.97;;
38783;SDS011;24531;45.502;12.238;2023-10-09T02:14:01;77.55;;;44.13;;
38783;SDS011;24531;45.502;12.238;2023-10-09T02:16:40;75.60;;;44.17;;
38783;SDS011;24531;45.502;12.238;2023-10-09T02:19:07;75.85;;;45.67;;
38783;SDS011;24531;45.502;12.238;2023-10-09T02:21:53;78.25;;;43.80;;
38783;SDS011;24531;45.502;12.238;2023-10-09T02:24:21;76.10;;;42.22;;
38783;SDS011;24531;45.502;12.238;2023-10-09T02:27:14;72.22;;;43.42;;
38783;SDS011;24531;45.502;12.238;2023-10-09T02:30:03;71.00;;;42.10;;
38783;SDS011;24531;45.502;12.238;2023-10-09T02:32:42;78.55;;;44.78;;
38783;SDS011;24531;45.502;12.238;2023-10-09T02:35:11;77.13;;;43.97;;
38783;SDS011;24531;45.502;12.238;2023-10-09T02:37:53;79.13;;;44.80;;
38783;SDS011;24531;45.502;12.238;2023-10-09T02:40:19;73.07;;;43.83;;
38783;SDS011;24531;45.502;12.238;2023-10-09T02:42:50;70.72;;;42.85;;
38783;SDS011;24531;45.502;12.238;2023-10-09T02:45:16;81.68;;;46.03;;
38783;SDS011;24531;45.502;12.238;2023-10-09T02:47:43;77.90;;;44.00;;
38783;SDS011;24531;45.502;12.238;2023-10-09T02:50:13;77.85;;;44.05;;
38783;SDS011;24531;45.502;12.238;2023-10-09T02:52:46;72.30;;;43.85;;
38783;SDS011;24531;45.502;12.238;2023-10-09T02:55:15;82.00;;;44.47;;
38783;SDS011;24531;45.502;12.238;2023-10-09T02:57:52;71.22;;;43.67;;
38783;SDS011;24531;45.502;12.238;2023-10-09T03:00:30;79.50;;;45.45;;
38783;SDS011;24531;45.502;12.238;2023-10-09T03:02:57;78.97;;;44.03;;
38783;SDS011;24531;45.502;12.238;2023-10-09T03:05:26;78.40;;;45.92;;
38783;SDS011;24531;45.502;12.238;2023-10-09T03:07:54;80.60;;;46.75;;
38783;SDS011;24531;45.502;12.238;2023-10-09T03:10:22;82.93;;;46.40;;
38783;SDS011;24531;45.502;12.238;2023-10-09T03:12:47;79.78;;;44.15;;
38783;SDS011;24531;45.502;12.238;2023-10-09T03:15:18;77.40;;;44.72;;
38783;SDS011;24531;45.502;12.238;2023-10-09T03:17:47;76.03;;;45.38;;
38783;SDS011;24531;45.502;12.238;2023-10-09T03:20:13;80.93;;;44.97;;
38783;SDS011;24531;45.502;12.238;2023-10-09T03:22:44;78.65;;;44.28;;
38783;SDS011;24531;45.502;12.238;2023-10-09T03:25:10;75.35;;;42.60;;
38783;SDS011;24531;45.502;12.238;2023-10-09T03:27:42;75.00;;;45.22;;
38783;SDS011;24531;45.502;12.238;2023-10-09T03:30:11;80.43;;;45.97;;
38783;SDS011;24531;45.502;12.238;2023-10-09T03:32:51;73.75;;;44.67;;
38783;SDS011;24531;45.502;12.238;2023-10-09T03:35:21;80.57;;;47.17;;
38783;SDS011;24531;45.502;12.238;2023-10-09T03:37:53;81.32;;;47.08;;
38783;SDS011;24531;45.502;12.238;2023-10-09T03:40:22;78.25;;;44.97;;
38783;SDS011;24531;45.502;12.238;2023-10-09T03:42:48;76.90;;;44.83;;
38783;SDS011;24531;45.502;12.238;2023-10-09T03:45:14;75.70;;;44.30;;
38783;SDS011;24531;45.502;12.238;2023-10-09T03:47:54;75.60;;;46.10;;
38783;SDS011;24531;45.502;12.238;2023-10-09T03:50:27;79.00;;;44.78;;
38783;SDS011;24531;45.502;12.238;2023-10-09T03:53:01;81.22;;;45.85;;
38783;SDS011;24531;45.502;12.238;2023-10-09T03:55:28;75.82;;;44.90;;
38783;SDS011;24531;45.502;12.238;2023-10-09T03:57:54;80.32;;;46.30;;
38783;SDS011;24531;45.502;12.238;2023-10-09T04:00:22;73.35;;;42.40;;
38783;SDS011;24531;45.502;12.238;2023-10-09T04:02:53;70.95;;;41.08;;
38783;SDS011;24531;45.502;12.238;2023-10-09T04:05:19;76.07;;;43.63;;
38783;SDS011;24531;45.502;12.238;2023-10-09T04:07:45;76.03;;;43.63;;
38783;SDS011;24531;45.502;12.238;2023-10-09T04:10:10;75.05;;;43.35;;
38783;SDS011;24531;45.502;12.238;2023-10-09T04:12:58;74.50;;;44.05;;
38783;SDS011;24531;45.502;12.238;2023-10-09T04:15:25;70.13;;;41.67;;
38783;SDS011;24531;45.502;12.238;2023-10-09T04:17:55;79.85;;;44.05;;
38783;SDS011;24531;45.502;12.238;2023-10-09T04:20:21;75.20;;;43.38;;
38783;SDS011;24531;45.502;12.238;2023-10-09T04:22:47;78.97;;;44.90;;
38783;SDS011;24531;45.502;12.238;2023-10-09T04:25:16;73.88;;;42.70;;
38783;SDS011;24531;45.502;12.238;2023-10-09T04:27:53;78.22;;;43.28;;
38783;SDS011;24531;45.502;12.238;2023-10-09T04:30:33;78.45;;;42.72;;
38783;SDS011;24531;45.502;12.238;2023-10-09T04:33:05;78.50;;;43.53;;
38783;SDS011;24531;45.502;12.238;2023-10-09T04:35:53;77.70;;;42.65;;
38783;SDS011;24531;45.502;12.238;2023-10-09T04:38:43;68.10;;;40.83;;
38783;SDS011;24531;45.502;12.238;2023-10-09T04:41:28;78.97;;;43.38;;
38783;SDS011;24531;45.502;12.238;2023-10-09T04:43:57;72.25;;;42.45;;
38783;SDS011;24531;45.502;12.238;2023-10-09T04:46:44;74.72;;;41.70;;
38783;SDS011;24531;45.502;12.238;2023-10-09T04:49:30;69.65;;;39.97;;
38783;SDS011;24531;45.502;12.238;2023-10-09T04:52:10;67.68;;;41.38;;
38783;SDS011;24531;45.502;12.238;2023-10-09T04:54:45;70.47;;;39.88;;
38783;SDS011;24531;45.502;12.238;2023-10-09T04:57:29;70.18;;;42.80;;
38783;SDS011;24531;45.502;12.238;2023-10-09T05:00:02;75.82;;;43.08;;
38783;SDS011;24531;45.502;12.238;2023-10-09T05:02:47;75.60;;;44.47;;
38783;SDS011;24531;45.502;12.238;2023-10-09T05:05:19;67.18;;;39.50;;
38783;SDS011;24531;45.502;12.238;2023-10-09T05:08:10;66.85;;;40.65;;
38783;SDS011;24531;45.502;12.238;2023-10-09T05:10:52;68.72;;;40.13;;
38783;SDS011;24531;45.502;12.238;2023-10-09T05:13:24;65.15;;;39.05;;
38783;SDS011;24531;45.502;12.238;2023-10-09T05:16:11;64.40;;;39.55;;
38783;SDS011;24531;45.502;12.238;2023-10-09T05:18:50;66.93;;;38.83;;
38783;SDS011;24531;45.502;12.238;2023-10-09T05:24:14;73.03;;;40.00;;
38783;SDS011;24531;45.502;12.238;2023-10-09T05:26:44;69.07;;;40.58;;
38783;SDS011;24531;45.502;12.238;2023-10-09T05:29:19;68.22;;;41.13;;
38783;SDS011;24531;45.502;12.238;2023-10-09T05:31:58;71.68;;;39.63;;
38783;SDS011;24531;45.502;12.238;2023-10-09T05:34:32;70.63;;;40.70;;
38783;SDS011;24531;45.502;12.238;2023-10-09T05:37:02;71.32;;;40.60;;
38783;SDS011;24531;45.502;12.238;2023-10-09T05:40:05;73.05;;;40.83;;
38783;SDS011;24531;45.502;12.238;2023-10-09T05:42:43;67.38;;;39.70;;
38783;SDS011;24531;45.502;12.238;2023-10-09T05:47:41;77.68;;;42.22;;
38783;SDS011;24531;45.502;12.238;2023-10-09T05:50:18;67.72;;;38.65;;
38783;SDS011;24531;45.502;12.238;2023-10-09T05:52:54;72.88;;;40.60;;
38783;SDS011;24531;45.502;12.238;2023-10-09T05:55:23;73.18;;;41.53;;
38783;SDS011;24531;45.502;12.238;2023-10-09T05:57:50;76.32;;;40.92;;
38783;SDS011;24531;45.502;12.238;2023-10-09T06:00:22;70.63;;;40.95;;
38783;SDS011;24531;45.502;12.238;2023-10-09T06:03:07;67.75;;;39.20;;
38783;SDS011;24531;45.502;12.238;2023-10-09T06:05:45;66.93;;;38.35;;
38783;SDS011;24531;45.502;12.238;2023-10-09T06:08:21;74.65;;;41.35;;
38783;SDS011;24531;45.502;12.238;2023-10-09T06:10:52;63.95;;;38.53;;
38783;SDS011;24531;45.502;12.238;2023-10-09T06:13:37;67.43;;;38.28;;
38783;SDS011;24531;45.502;12.238;2023-10-09T06:16:02;67.13;;;39.25;;
38783;SDS011;24531;45.502;12.238;2023-10-09T06:18:45;68.60;;;38.63;;
38783;SDS011;24531;45.502;12.238;2023-10-09T06:21:19;63.83;;;36.60;;
38783;SDS011;24531;45.502;12.238;2023-10-09T06:24:08;64.82;;;37.47;;
38783;SDS011;24531;45.502;12.238;2023-10-09T06:26:40;58.78;;;36.78;;
38783;SDS011;24531;45.502;12.238;2023-10-09T06:29:17;65.00;;;36.13;;
38783;SDS011;24531;45.502;12.238;2023-10-09T06:32:03;57.95;;;35.67;;
38783;SDS011;24531;45.502;12.238;2023-10-09T06:34:49;61.45;;;35.78;;
38783;SDS011;24531;45.502;12.238;2023-10-09T06:37:19;61.15;;;36.75;;
38783;SDS011;24531;45.502;12.238;2023-10-09T06:39:48;62.42;;;34.35;;
38783;SDS011;24531;45.502;12.238;2023-10-09T06:42:20;59.10;;;34.22;;
38783;SDS011;24531;45.502;12.238;2023-10-09T06:45:02;60.60;;;35.85;;
38783;SDS011;24531;45.502;12.238;2023-10-09T06:47:31;58.00;;;33.60;;
38783;SDS011;24531;45.502;12.238;2023-10-09T06:50:06;52.80;;;33.10;;
38783;SDS011;24531;45.502;12.238;2023-10-09T06:52:47;54.20;;;32.95;;
38783;SDS011;24531;45.502;12.238;2023-10-09T06:55:25;57.25;;;32.63;;
38783;SDS011;24531;45.502;12.238;2023-10-09T06:58:13;52.08;;;32.13;;
38783;SDS011;24531;45.502;12.238;2023-10-09T07:00:54;47.40;;;29.38;;
38783;SDS011;24531;45.502;12.238;2023-10-09T07:03:29;46.20;;;30.45;;
38783;SDS011;24531;45.502;12.238;2023-10-09T07:06:10;44.50;;;28.80;;
38783;SDS011;24531;45.502;12.238;2023-10-09T07:08:54;47.40;;;28.98;;
38783;SDS011;24531;45.502;12.238;2023-10-09T07:11:33;45.97;;;28.58;;
38783;SDS011;24531;45.502;12.238;2023-10-09T07:14:09;42.03;;;25.48;;
38783;SDS011;24531;45.502;12.238;2023-10-09T07:16:59;47.88;;;27.10;;
38783;SDS011;24531;45.502;12.238;2023-10-09T07:19:31;38.97;;;24.30;;
38783;SDS011;24531;45.502;12.238;2023-10-09T07:22:00;38.58;;;23.35;;
38783;SDS011;24531;45.502;12.238;2023-10-09T07:24:32;38.05;;;23.65;;
38783;SDS011;24531;45.502;12.238;2023-10-09T07:27:09;31.38;;;21.95;;
38783;SDS011;24531;45.502;12.238;2023-10-09T07:29:36;38.33;;;22.85;;
38783;SDS011;24531;45.502;12.238;2023-10-09T07:32:14;37.45;;;21.42;;
38783;SDS011;24531;45.502;12.238;2023-10-09T07:34:46;35.38;;;20.80;;
38783;SDS011;24531;45.502;12.238;2023-10-09T07:37:27;35.75;;;20.50;;
38783;SDS011;24531;45.502;12.238;2023-10-09T07:39:59;30.00;;;19.13;;
38783;SDS011;24531;45.502;12.238;2023-10-09T07:42:31;31.20;;;19.23;;
38783;SDS011;24531;45.502;12.238;2023-10-09T07:45:07;27.25;;;18.35;;
38783;SDS011;24531;45.502;12.238;2023-10-09T07:47:48;30.67;;;18.67;;
38783;SDS011;24531;45.502;12.238;2023-10-09T07:50:34;27.67;;;17.42;;
38783;SDS011;24531;45.502;12.238;2023-10-09T07:53:13;26.45;;;17.88;;
38783;SDS011;24531;45.502;12.238;2023-10-09T07:56:04;22.75;;;15.80;;
38783;SDS011;24531;45.502;12.238;2023-10-09T07:58:33;28.33;;;17.25;;
38783;SDS011;24531;45.502;12.238;2023-10-09T08:01:11;29.98;;;16.67;;
38783;SDS011;24531;45.502;12.238;2023-10-09T08:03:50;22.48;;;15.27;;
38783;SDS011;24531;45.502;12.238;2023-10-09T08:06:45;30.67;;;15.00;;
38783;SDS011;24531;45.502;12.238;2023-10-09T08:09:12;24.40;;;14.30;;
38783;SDS011;24531;45.502;12.238;2023-10-09T08:11:38;24.05;;;13.40;;
38783;SDS011;24531;45.502;12.238;2023-10-09T08:14:13;22.30;;;13.10;;
38783;SDS011;24531;45.502;12.238;2023-10-09T08:16:58;24.42;;;13.40;;
38783;SDS011;24531;45.502;12.238;2023-10-09T08:19:49;24.50;;;11.93;;
38783;SDS011;24531;45.502;12.238;2023-10-09T08:22:25;21.15;;;11.93;;
38783;SDS011;24531;45.502;12.238;2023-10-09T08:24:52;22.83;;;11.77;;
38783;SDS011;24531;45.502;12.238;2023-10-09T08:27:23;23.60;;;11.07;;
38783;SDS011;24531;45.502;12.238;2023-10-09T08:29:58;19.00;;;10.18;;
38783;SDS011;24531;45.502;12.238;2023-10-09T08:32:43;19.85;;;11.07;;
38783;SDS011;24531;45.502;12.238;2023-10-09T08:38:11;18.35;;;9.40;;
38783;SDS011;24531;45.502;12.238;2023-10-09T08:40:37;13.57;;;9.57;;
38783;SDS011;24531;45.502;12.238;2023-10-09T08:46:03;15.85;;;9.48;;
38783;SDS011;24531;45.502;12.238;2023-10-09T08:48:30;18.85;;;11.05;;
38783;SDS011;24531;45.502;12.238;2023-10-09T08:50:56;15.05;;;10.07;;
38783;SDS011;24531;45.502;12.238;2023-10-09T08:53:22;18.95;;;10.18;;
38783;SDS011;24531;45.502;12.238;2023-10-09T08:55:49;19.90;;;10.90;;
38783;SDS011;24531;45.502;12.238;2023-10-09T08:58:16;21.00;;;11.25;;
38783;SDS011;24531;45.502;12.238;2023-10-09T09:01:01;16.70;;;10.60;;
38783;SDS011;24531;45.502;12.238;2023-10-09T09:03:37;24.73;;;14.02;;
38783;SDS011;24531;45.502;12.238;2023-10-09T09:06:04;30.75;;;15.90;;
38783;SDS011;24531;45.502;12.238;2023-10-09T09:08:31;25.13;;;15.57;;
38783;SDS011;24531;45.502;12.238;2023-10-09T09:13:40;19.88;;;12.25;;
38783;SDS011;24531;45.502;12.238;2023-10-09T09:16:16;24.63;;;14.90;;
38783;SDS011;24531;45.502;12.238;2023-10-09T09:18:51;25.58;;;14.95;;
38783;SDS011;24531;45.502;12.238;2023-10-09T09:21:33;30.33;;;15.02;;
38783;SDS011;24531;45.502;12.238;2023-10-09T09:24:06;23.88;;;13.27;;
38783;SDS011;24531;45.502;12.238;2023-10-09T09:26:48;21.63;;;13.15;;
38783;SDS011;24531;45.502;12.238;2023-10-09T09:29:24;29.05;;;17.30;;
38783;SDS011;24531;45.502;12.238;2023-10-09T09:32:03;34.58;;;18.73;;
38783;SDS011;24531;45.502;12.238;2023-10-09T09:37:30;31.67;;;20.33;;
38783;SDS011;24531;45.502;12.238;2023-10-09T09:40:11;35.35;;;20.42;;
38783;SDS011;24531;45.502;12.238;2023-10-09T09:42:52;36.40;;;21.35;;
38783;SDS011;24531;45.502;12.238;2023-10-09T09:45:36;38.00;;;21.85;;
38783;SDS011;24531;45.502;12.238;2023-10-09T09:48:03;36.58;;;20.15;;
38783;SDS011;24531;45.502;12.238;2023-10-09T09:50:36;31.88;;;19.77;;
38783;SDS011;24531;45.502;12.238;2023-10-09T09:53:08;37.47;;;19.45;;
38783;SDS011;24531;45.502;12.238;2023-10-09T09:55:37;33.78;;;19.88;;
38783;SDS011;24531;45.502;12.238;2023-10-09T09:58:07;34.05;;;22.15;;
38783;SDS011;24531;45.502;12.238;2023-10-09T10:00:43;37.58;;;19.48;;
38783;SDS011;24531;45.502;12.238;2023-10-09T10:03:14;43.67;;;20.83;;
38783;SDS011;24531;45.502;12.238;2023-10-09T10:05:44;37.92;;;20.63;;
38783;SDS011;24531;45.502;12.238;2023-10-09T10:08:17;40.53;;;21.02;;
38783;SDS011;24531;45.502;12.238;2023-10-09T10:10:48;35.42;;;21.58;;
38783;SDS011;24531;45.502;12.238;2023-10-09T10:13:18;42.90;;;23.88;;
38783;SDS011;24531;45.502;12.238;2023-10-09T10:16:09;36.95;;;24.35;;
38783;SDS011;24531;45.502;12.238;2023-10-09T10:18:52;40.63;;;21.77;;
38783;SDS011;24531;45.502;12.238;2023-10-09T10:21:36;41.22;;;24.42;;
38783;SDS011;24531;45.502;12.238;2023-10-09T10:30:06;43.40;;;26.27;;
38783;SDS011;24531;45.502;12.238;2023-10-09T10:32:56;40.47;;;26.50;;
38783;SDS011;24531;45.502;12.238;2023-10-09T10:35:24;44.67;;;28.55;;
38783;SDS011;24531;45.502;12.238;2023-10-09T10:40:50;52.53;;;29.80;;
38783;SDS011;24531;45.502;12.238;2023-10-09T10:43:26;41.17;;;24.90;;
38783;SDS011;24531;45.502;12.238;2023-10-09T10:46:12;43.47;;;26.70;;
38783;SDS011;24531;45.502;12.238;2023-10-09T10:48:41;46.88;;;27.02;;
38783;SDS011;24531;45.502;12.238;2023-10-09T10:51:12;48.47;;;28.20;;
38783;SDS011;24531;45.502;12.238;2023-10-09T10:53:49;44.10;;;26.65;;
38783;SDS011;24531;45.502;12.238;2023-10-09T10:56:25;42.17;;;24.83;;
38783;SDS011;24531;45.502;12.238;2023-10-09T10:59:00;43.88;;;26.67;;
38783;SDS011;24531;45.502;12.238;2023-10-09T11:01:32;43.25;;;26.85;;
38783;SDS011;24531;45.502;12.238;2023-10-09T11:04:18;47.00;;;27.60;;
38783;SDS011;24531;45.502;12.238;2023-10-09T11:06:55;46.90;;;28.77;;
38783;SDS011;24531;45.502;12.238;2023-10-09T11:12:27;52.13;;;31.17;;
38783;SDS011;24531;45.502;12.238;2023-10-09T11:15:12;44.05;;;29.73;;
38783;SDS011;24531;45.502;12.238;2023-10-09T11:20:41;40.45;;;25.45;;
38783;SDS011;24531;45.502;12.238;2023-10-09T11:23:21;44.40;;;25.92;;
38783;SDS011;24531;45.502;12.238;2023-10-09T11:26:14;55.33;;;29.08;;
38783;SDS011;24531;45.502;12.238;2023-10-09T11:28:46;43.35;;;26.92;;
38783;SDS011;24531;45.502;12.238;2023-10-09T11:31:38;47.95;;;27.98;;
38783;SDS011;24531;45.502;12.238;2023-10-09T11:34:05;45.83;;;26.52;;
38783;SDS011;24531;45.502;12.238;2023-10-09T11:37:13;44.67;;;28.05;;
38783;SDS011;24531;45.502;12.238;2023-10-09T11:39:56;50.95;;;29.60;;
38783;SDS011;24531;45.502;12.238;2023-10-09T11:42:23;49.30;;;28.70;;
38783;SDS011;24531;45.502;12.238;2023-10-09T11:45:19;41.95;;;24.65;;
38783;SDS011;24531;45.502;12.238;2023-10-09T11:47:49;45.80;;;25.17;;
38783;SDS011;24531;45.502;12.238;2023-10-09T11:53:09;47.22;;;27.95;;
38783;SDS011;24531;45.502;12.238;2023-10-09T11:55:47;40.97;;;26.38;;
38783;SDS011;24531;45.502;12.238;2023-10-09T11:58:14;47.67;;;25.05;;
38783;SDS011;24531;45.502;12.238;2023-10-09T12:00:58;48.35;;;26.25;;
38783;SDS011;24531;45.502;12.238;2023-10-09T12:03:27;50.45;;;26.70;;
38783;SDS011;24531;45.502;12.238;2023-10-09T12:05:56;39.88;;;24.58;;
38783;SDS011;24531;45.502;12.238;2023-10-09T12:08:23;41.72;;;25.15;;
38783;SDS011;24531;45.502;12.238;2023-10-09T12:10:52;42.05;;;25.35;;
38783;SDS011;24531;45.502;12.238;2023-10-09T12:13:23;47.22;;;26.13;;
38783;SDS011;24531;45.502;12.238;2023-10-09T12:15:52;47.83;;;27.70;;
38783;SDS011;24531;45.502;12.238;2023-10-09T12:18:19;41.75;;;24.45;;
38783;SDS011;24531;45.502;12.238;2023-10-09T12:20:49;44.70;;;23.90;;
38783;SDS011;24531;45.502;12.238;2023-10-09T12:23:21;42.67;;;25.17;;
38783;SDS011;24531;45.502;12.238;2023-10-09T12:25:48;48.05;;;25.98;;
38783;SDS011;24531;45.502;12.238;2023-10-09T12:28:15;49.60;;;27.33;;
38783;SDS011;24531;45.502;12.238;2023-10-09T12:30:45;44.45;;;24.73;;
38783;SDS011;24531;45.502;12.238;2023-10-09T12:33:15;49.53;;;28.48;;
38783;SDS011;24531;45.502;12.238;2023-10-09T12:35:45;48.95;;;26.58;;
38783;SDS011;24531;45.502;12.238;2023-10-09T12:38:12;55.10;;;28.02;;
38783;SDS011;24531;45.502;12.238;2023-10-09T12:40:43;43.20;;;26.20;;
38783;SDS011;24531;45.502;12.238;2023-10-09T12:43:16;41.40;;;24.48;;
38783;SDS011;24531;45.502;12.238;2023-10-09T12:45:45;44.00;;;26.38;;
38783;SDS011;24531;45.502;12.238;2023-10-09T12:48:11;38.45;;;23.85;;
38783;SDS011;24531;45.502;12.238;2023-10-09T12:50:39;44.50;;;24.33;;
38783;SDS011;24531;45.502;12.238;2023-10-09T12:53:09;41.90;;;24.67;;
38783;SDS011;24531;45.502;12.238;2023-10-09T12:58:11;43.03;;;24.70;;
38783;SDS011;24531;45.502;12.238;2023-10-09T13:00:41;38.20;;;23.98;;
38783;SDS011;24531;45.502;12.238;2023-10-09T13:03:13;45.15;;;25.70;;
38783;SDS011;24531;45.502;12.238;2023-10-09T13:05:46;39.40;;;24.02;;
38783;SDS011;24531;45.502;12.238;2023-10-09T13:08:26;39.67;;;24.20;;
38783;SDS011;24531;45.502;12.238;2023-10-09T13:10:57;49.67;;;25.70;;
38783;SDS011;24531;45.502;12.238;2023-10-09T13:16:19;41.95;;;26.08;;
38783;SDS011;24531;45.502;12.238;2023-10-09T13:18:49;49.05;;;26.23;;
38783;SDS011;24531;45.502;12.238;2023-10-09T13:21:23;46.85;;;25.67;;
38783;SDS011;24531;45.502;12.238;2023-10-09T13:23:57;41.20;;;25.98;;
38783;SDS011;24531;45.502;12.238;2023-10-09T13:26:23;51.03;;;28.40;;
38783;SDS011;24531;45.502;12.238;2023-10-09T13:28:53;45.75;;;28.13;;
38783;SDS011;24531;45.502;12.238;2023-10-09T13:31:19;48.53;;;29.02;;
38783;SDS011;24531;45.502;12.238;2023-10-09T13:33:46;48.10;;;27.75;;
38783;SDS011;24531;45.502;12.238;2023-10-09T13:36:13;49.92;;;29.92;;
38783;SDS011;24531;45.502;12.238;2023-10-09T13:38:54;49.58;;;28.70;;
38783;SDS011;24531;45.502;12.238;2023-10-09T13:41:21;51.00;;;27.98;;
38783;SDS011;24531;45.502;12.238;2023-10-09T13:43:50;48.85;;;27.75;;
38783;SDS011;24531;45.502;12.238;2023-10-09T13:46:16;54.58;;;29.83;;
38783;SDS011;24531;45.502;12.238;2023-10-09T13:48:43;49.40;;;28.95;;
38783;SDS011;24531;45.502;12.238;2023-10-09T13:51:11;51.78;;;28.15;;
38783;SDS011;24531;45.502;12.238;2023-10-09T13:53:46;45.67;;;28.70;;
38783;SDS011;24531;45.502;12.238;2023-10-09T13:56:14;45.55;;;27.27;;
38783;SDS011;24531;45.502;12.238;2023-10-09T13:58:43;47.78;;;26.58;;
38783;SDS011;24531;45.502;12.238;2023-10-09T14:01:09;48.97;;;27.02;;
38783;SDS011;24531;45.502;12.238;2023-10-09T14:03:35;42.97;;;26.05;;
38783;SDS011;24531;45.502;12.238;2023-10-09T14:06:03;42.53;;;24.60;;
38783;SDS011;24531;45.502;12.238;2023-10-09T14:08:37;45.80;;;25.10;;
38783;SDS011;24531;45.502;12.238;2023-10-09T14:11:07;40.08;;;24.73;;
38783;SDS011;24531;45.502;12.238;2023-10-09T14:13:38;46.17;;;24.40;;
38783;SDS011;24531;45.502;12.238;2023-10-09T14:16:07;46.13;;;26.40;;
38783;SDS011;24531;45.502;12.238;2023-10-09T14:18:49;41.60;;;24.65;;
38783;SDS011;24531;45.502;12.238;2023-10-09T14:21:18;52.17;;;28.20;;
38783;SDS011;24531;45.502;12.238;2023-10-09T14:23:45;48.00;;;27.88;;
38783;SDS011;24531;45.502;12.238;2023-10-09T14:26:13;43.25;;;25.23;;
38783;SDS011;24531;45.502;12.238;2023-10-09T14:28:40;38.63;;;24.90;;
38783;SDS011;24531;45.502;12.238;2023-10-09T14:31:07;44.22;;;24.63;;
38783;SDS011;24531;45.502;12.238;2023-10-09T14:33:37;39.17;;;24.67;;
38783;SDS011;24531;45.502;12.238;2023-10-09T14:36:03;45.35;;;25.95;;
38783;SDS011;24531;45.502;12.238;2023-10-09T14:38:30;51.53;;;27.63;;
38783;SDS011;24531;45.502;12.238;2023-10-09T14:40:58;44.47;;;27.63;;
38783;SDS011;24531;45.502;12.238;2023-10-09T14:43:25;50.97;;;28.40;;
38783;SDS011;24531;45.502;12.238;2023-10-09T14:45:53;43.33;;;26.75;;
38783;SDS011;24531;45.502;12.238;2023-10-09T14:48:19;49.92;;;28.20;;
38783;SDS011;24531;45.502;12.238;2023-10-09T14:50:52;54.15;;;27.85;;
38783;SDS011;24531;45.502;12.238;2023-10-09T14:53:18;54.72;;;30.27;;
38783;SDS011;24531;45.502;12.238;2023-10-09T14:55:55;45.88;;;28.52;;
38783;SDS011;24531;45.502;12.238;2023-10-09T14:58:26;43.50;;;26.80;;
38783;SDS011;24531;45.502;12.238;2023-10-09T15:00:54;58.03;;;29.75;;
38783;SDS011;24531;45.502;12.238;2023-10-09T15:03:20;51.28;;;29.85;;
38783;SDS011;24531;45.502;12.238;2023-10-09T15:05:47;54.47;;;29.35;;
38783;SDS011;24531;45.502;12.238;2023-10-09T15:08:12;48.33;;;29.38;;
38783;SDS011;24531;45.502;12.238;2023-10-09T15:10:48;58.63;;;28.65;;
38783;SDS011;24531;45.502;12.238;2023-10-09T15:13:16;54.47;;;29.20;;
38783;SDS011;24531;45.502;12.238;2023-10-09T15:15:45;48.15;;;29.35;;
38783;SDS011;24531;45.502;12.238;2023-10-09T15:18:16;44.35;;;27.38;;
38783;SDS011;24531;45.502;12.238;2023-10-09T15:20:43;54.67;;;30.85;;
38783;SDS011;24531;45.502;12.238;2023-10-09T15:23:10;51.00;;;31.60;;
38783;SDS011;24531;45.502;12.238;2023-10-09T15:25:35;47.95;;;29.73;;
38783;SDS011;24531;45.502;12.238;2023-10-09T15:28:04;51.13;;;30.95;;